sensor_id;sensor_type;location;lat;lon;timestamp;temperature;humidity
45066;DHT22;30830;53.704;10.004;2023-04-30T00:01:27;3.90;99.90
45066;DHT22;30830;53.704;10.004;2023-04-30T00:03:52;3.90;99.90
45066;DHT22;30830;53.704;10.004;2023-04-30T00:06:18;3.90;99.90
45066;DHT22;30830;53.704;10.004;2023-04-30T00:08:44;3.80;99.90
45066;DHT22;30830;53.704;10.004;2023-04-30T00:11:09;3.80;99.90
45066;DHT22;30830;53.704;10.004;2023-04-30T00:13:35;3.70;99.90
45066;DHT22;30830;53.704;10.004;2023-04-30T00:16:00;3.70;99.90
45066;DHT22;30830;53.704;10.004;2023-04-30T00:18:26;3.60;99.90
45066;DHT22;30830;53.704;10.004;2023-04-30T00:20:51;3.60;99.90
45066;DHT22;30830;53.704;10.004;2023-04-30T00:23:17;3.60;99.90
45066;DHT22;30830;53.704;10.004;2023-04-30T00:25:43;3.50;99.90
45066;DHT22;30830;53.704;10.004;2023-04-30T00:28:08;3.50;99.90
45066;DHT22;30830;53.704;10.004;2023-04-30T00:30:34;3.50;99.90
45066;DHT22;30830;53.704;10.004;2023-04-30T00:32:59;3.40;99.90
45066;DHT22;30830;53.704;10.004;2023-04-30T00:35:25;3.40;99.90
45066;DHT22;30830;53.704;10.004;2023-04-30T00:37:51;3.40;99.90
45066;DHT22;30830;53.704;10.004;2023-04-30T00:40:16;3.30;99.90
45066;DHT22;30830;53.704;10.004;2023-04-30T00:42:42;3.30;99.90
45066;DHT22;30830;53.704;10.004;2023-04-30T00:45:07;3.30;99.90
45066;DHT22;30830;53.704;10.004;2023-04-30T00:47:33;3.20;99.90
45066;DHT22;30830;53.704;10.004;2023-04-30T00:49:59;3.20;99.90
45066;DHT22;30830;53.704;10.004;2023-04-30T00:52:25;3.20;99.90
45066;DHT22;30830;53.704;10.004;2023-04-30T00:54:51;3.10;99.90
45066;DHT22;30830;53.704;10.004;2023-04-30T00:57:19;3.00;99.90
45066;DHT22;30830;53.704;10.004;2023-04-30T00:59:45;3.10;99.90
45066;DHT22;30830;53.704;10.004;2023-04-30T01:02:12;3.00;99.90
45066;DHT22;30830;53.704;10.004;2023-04-30T01:04:38;3.00;99.90
45066;DHT22;30830;53.704;10.004;2023-04-30T01:07:04;3.00;99.90
45066;DHT22;30830;53.704;10.004;2023-04-30T01:09:30;3.00;99.90
45066;DHT22;30830;53.704;10.004;2023-04-30T01:12:19;3.00;99.90
45066;DHT22;30830;53.704;10.004;2023-04-30T01:14:56;3.00;99.90
45066;DHT22;30830;53.704;10.004;2023-04-30T01:17:46;2.90;99.90
45066;DHT22;30830;53.704;10.004;2023-04-30T01:20:12;2.90;99.90
45066;DHT22;30830;53.704;10.004;2023-04-30T01:23:07;2.80;99.90
45066;DHT22;30830;53.704;10.004;2023-04-30T01:28:05;2.80;99.90
45066;DHT22;30830;53.704;10.004;2023-04-30T01:30:32;2.70;99.90
45066;DHT22;30830;53.704;10.004;2023-04-30T01:32:58;2.70;99.90
45066;DHT22;30830;53.704;10.004;2023-04-30T01:46:34;2.50;99.90
45066;DHT22;30830;53.704;10.004;2023-04-30T01:49:11;2.50;99.90
45066;DHT22;30830;53.704;10.004;2023-04-30T01:51:41;2.50;99.90
45066;DHT22;30830;53.704;10.004;2023-04-30T01:57:20;2.40;99.90
45066;DHT22;30830;53.704;10.004;2023-04-30T01:59:47;2.40;99.90
45066;DHT22;30830;53.704;10.004;2023-04-30T02:02:12;2.40;99.90
45066;DHT22;30830;53.704;10.004;2023-04-30T02:04:38;2.40;99.90
45066;DHT22;30830;53.704;10.004;2023-04-30T02:07:03;2.30;99.90
45066;DHT22;30830;53.704;10.004;2023-04-30T02:09:29;2.30;99.90
45066;DHT22;30830;53.704;10.004;2023-04-30T02:11:55;2.30;99.90
45066;DHT22;30830;53.704;10.004;2023-04-30T02:14:22;2.30;99.90
45066;DHT22;30830;53.704;10.004;2023-04-30T02:16:47;2.20;99.90
45066;DHT22;30830;53.704;10.004;2023-04-30T02:19:13;2.20;99.90
45066;DHT22;30830;53.704;10.004;2023-04-30T02:21:38;2.20;99.90
45066;DHT22;30830;53.704;10.004;2023-04-30T02:24:04;2.20;99.90
45066;DHT22;30830;53.704;10.004;2023-04-30T02:26:30;2.10;99.90
45066;DHT22;30830;53.704;10.004;2023-04-30T02:28:56;2.10;99.90
45066;DHT22;30830;53.704;10.004;2023-04-30T02:31:21;2.10;99.90
45066;DHT22;30830;53.704;10.004;2023-04-30T02:33:46;2.10;99.90
45066;DHT22;30830;53.704;10.004;2023-04-30T02:36:12;2.00;99.90
45066;DHT22;30830;53.704;10.004;2023-04-30T02:38:38;2.00;99.90
45066;DHT22;30830;53.704;10.004;2023-04-30T02:41:03;2.00;99.90
45066;DHT22;30830;53.704;10.004;2023-04-30T02:43:29;2.00;99.90
45066;DHT22;30830;53.704;10.004;2023-04-30T02:45:54;2.00;99.90
45066;DHT22;30830;53.704;10.004;2023-04-30T02:48:20;2.00;99.90
45066;DHT22;30830;53.704;10.004;2023-04-30T02:50:46;1.90;99.90
45066;DHT22;30830;53.704;10.004;2023-04-30T02:53:11;1.90;99.90
45066;DHT22;30830;53.704;10.004;2023-04-30T02:55:37;1.90;99.90
45066;DHT22;30830;53.704;10.004;2023-04-30T02:58:02;1.90;99.90
45066;DHT22;30830;53.704;10.004;2023-04-30T03:00:28;1.90;99.90
45066;DHT22;30830;53.704;10.004;2023-04-30T03:02:53;1.80;99.90
45066;DHT22;30830;53.704;10.004;2023-04-30T03:05:19;1.80;99.90
45066;DHT22;30830;53.704;10.004;2023-04-30T03:07:44;1.70;99.90
45066;DHT22;30830;53.704;10.004;2023-04-30T03:10:10;1.70;99.90
45066;DHT22;30830;53.704;10.004;2023-04-30T03:12:35;1.70;99.90
45066;DHT22;30830;53.704;10.004;2023-04-30T03:15:01;1.70;99.90
45066;DHT22;30830;53.704;10.004;2023-04-30T03:17:27;1.70;99.90
45066;DHT22;30830;53.704;10.004;2023-04-30T03:19:52;1.70;99.90
45066;DHT22;30830;53.704;10.004;2023-04-30T03:22:18;1.60;99.90
45066;DHT22;30830;53.704;10.004;2023-04-30T03:24:45;1.60;99.90
45066;DHT22;30830;53.704;10.004;2023-04-30T03:27:10;1.70;99.90
45066;DHT22;30830;53.704;10.004;2023-04-30T03:29:36;1.60;99.90
45066;DHT22;30830;53.704;10.004;2023-04-30T03:32:01;1.70;99.90
45066;DHT22;30830;53.704;10.004;2023-04-30T03:34:27;1.70;99.90
45066;DHT22;30830;53.704;10.004;2023-04-30T03:36:52;1.70;99.90
45066;DHT22;30830;53.704;10.004;2023-04-30T03:39:18;1.60;99.90
45066;DHT22;30830;53.704;10.004;2023-04-30T03:41:43;1.60;99.90
45066;DHT22;30830;53.704;10.004;2023-04-30T03:44:09;1.50;99.90
45066;DHT22;30830;53.704;10.004;2023-04-30T03:46:40;1.50;99.90
45066;DHT22;30830;53.704;10.004;2023-04-30T03:49:06;1.50;99.90
45066;DHT22;30830;53.704;10.004;2023-04-30T03:51:32;1.50;99.90
45066;DHT22;30830;53.704;10.004;2023-04-30T03:53:57;1.50;99.90
45066;DHT22;30830;53.704;10.004;2023-04-30T03:56:23;1.50;99.90
45066;DHT22;30830;53.704;10.004;2023-04-30T03:58:50;1.50;99.90
45066;DHT22;30830;53.704;10.004;2023-04-30T04:01:16;1.50;99.90
45066;DHT22;30830;53.704;10.004;2023-04-30T04:03:41;1.50;99.90
45066;DHT22;30830;53.704;10.004;2023-04-30T04:06:07;1.40;99.90
45066;DHT22;30830;53.704;10.004;2023-04-30T04:08:32;1.40;99.90
45066;DHT22;30830;53.704;10.004;2023-04-30T04:10:58;1.40;99.90
45066;DHT22;30830;53.704;10.004;2023-04-30T04:13:24;1.40;99.90
45066;DHT22;30830;53.704;10.004;2023-04-30T04:15:49;1.40;99.90
45066;DHT22;30830;53.704;10.004;2023-04-30T04:18:15;1.40;99.90
45066;DHT22;30830;53.704;10.004;2023-04-30T04:20:40;1.40;99.90
45066;DHT22;30830;53.704;10.004;2023-04-30T04:23:06;1.40;99.90
45066;DHT22;30830;53.704;10.004;2023-04-30T04:25:31;1.40;99.90
45066;DHT22;30830;53.704;10.004;2023-04-30T04:27:57;1.40;99.90
45066;DHT22;30830;53.704;10.004;2023-04-30T04:30:23;1.40;99.90
45066;DHT22;30830;53.704;10.004;2023-04-30T04:32:48;1.40;99.90
45066;DHT22;30830;53.704;10.004;2023-04-30T04:35:18;1.40;99.90
45066;DHT22;30830;53.704;10.004;2023-04-30T04:37:43;1.50;99.90
45066;DHT22;30830;53.704;10.004;2023-04-30T04:40:09;1.50;99.90
45066;DHT22;30830;53.704;10.004;2023-04-30T04:42:37;1.50;99.90
45066;DHT22;30830;53.704;10.004;2023-04-30T04:45:06;1.50;99.90
45066;DHT22;30830;53.704;10.004;2023-04-30T04:47:32;1.50;99.90
45066;DHT22;30830;53.704;10.004;2023-04-30T04:49:58;1.50;99.90
45066;DHT22;30830;53.704;10.004;2023-04-30T04:52:23;1.50;99.90
45066;DHT22;30830;53.704;10.004;2023-04-30T04:54:49;1.60;99.90
45066;DHT22;30830;53.704;10.004;2023-04-30T04:57:14;1.60;99.90
45066;DHT22;30830;53.704;10.004;2023-04-30T04:59:40;1.70;99.90
45066;DHT22;30830;53.704;10.004;2023-04-30T05:02:06;1.70;99.90
45066;DHT22;30830;53.704;10.004;2023-04-30T05:04:31;1.70;99.90
45066;DHT22;30830;53.704;10.004;2023-04-30T05:06:57;1.70;99.90
45066;DHT22;30830;53.704;10.004;2023-04-30T05:09:22;1.80;99.90
45066;DHT22;30830;53.704;10.004;2023-04-30T05:11:48;1.80;99.90
45066;DHT22;30830;53.704;10.004;2023-04-30T05:14:14;1.80;99.90
45066;DHT22;30830;53.704;10.004;2023-04-30T05:16:39;1.90;99.90
45066;DHT22;30830;53.704;10.004;2023-04-30T05:19:05;1.90;99.90
45066;DHT22;30830;53.704;10.004;2023-04-30T05:21:31;2.00;99.90
45066;DHT22;30830;53.704;10.004;2023-04-30T05:23:57;2.00;99.90
45066;DHT22;30830;53.704;10.004;2023-04-30T05:26:22;2.10;99.90
45066;DHT22;30830;53.704;10.004;2023-04-30T05:28:51;2.10;99.90
45066;DHT22;30830;53.704;10.004;2023-04-30T05:31:17;2.20;99.90
45066;DHT22;30830;53.704;10.004;2023-04-30T05:33:42;2.20;99.90
45066;DHT22;30830;53.704;10.004;2023-04-30T05:36:09;2.30;99.90
45066;DHT22;30830;53.704;10.004;2023-04-30T05:38:34;2.40;99.90
45066;DHT22;30830;53.704;10.004;2023-04-30T05:41:00;2.50;99.90
45066;DHT22;30830;53.704;10.004;2023-04-30T05:43:26;2.60;99.90
45066;DHT22;30830;53.704;10.004;2023-04-30T05:45:51;2.70;99.90
45066;DHT22;30830;53.704;10.004;2023-04-30T05:48:17;2.80;99.90
45066;DHT22;30830;53.704;10.004;2023-04-30T05:50:45;2.90;99.90
45066;DHT22;30830;53.704;10.004;2023-04-30T05:53:11;2.90;99.90
45066;DHT22;30830;53.704;10.004;2023-04-30T05:55:37;3.10;99.90
45066;DHT22;30830;53.704;10.004;2023-04-30T05:58:02;3.20;99.90
45066;DHT22;30830;53.704;10.004;2023-04-30T06:00:31;3.30;99.90
45066;DHT22;30830;53.704;10.004;2023-04-30T06:02:56;3.40;99.90
45066;DHT22;30830;53.704;10.004;2023-04-30T06:05:22;3.50;99.90
45066;DHT22;30830;53.704;10.004;2023-04-30T06:07:47;3.60;99.90
45066;DHT22;30830;53.704;10.004;2023-04-30T06:10:13;3.80;99.90
45066;DHT22;30830;53.704;10.004;2023-04-30T06:12:38;3.90;99.90
45066;DHT22;30830;53.704;10.004;2023-04-30T06:15:05;4.00;99.90
45066;DHT22;30830;53.704;10.004;2023-04-30T06:17:31;4.10;99.90
45066;DHT22;30830;53.704;10.004;2023-04-30T06:19:56;4.30;99.90
45066;DHT22;30830;53.704;10.004;2023-04-30T06:22:25;4.40;99.90
45066;DHT22;30830;53.704;10.004;2023-04-30T06:24:50;4.60;99.90
45066;DHT22;30830;53.704;10.004;2023-04-30T06:27:16;4.80;99.90
45066;DHT22;30830;53.704;10.004;2023-04-30T06:29:41;5.00;99.90
45066;DHT22;30830;53.704;10.004;2023-04-30T06:32:07;5.20;99.90
45066;DHT22;30830;53.704;10.004;2023-04-30T06:34:33;5.50;99.90
45066;DHT22;30830;53.704;10.004;2023-04-30T06:36:58;5.70;99.90
45066;DHT22;30830;53.704;10.004;2023-04-30T06:39:24;5.90;99.90
45066;DHT22;30830;53.704;10.004;2023-04-30T06:41:49;6.10;99.90
45066;DHT22;30830;53.704;10.004;2023-04-30T06:44:16;6.20;99.90
45066;DHT22;30830;53.704;10.004;2023-04-30T06:46:43;6.40;99.90
45066;DHT22;30830;53.704;10.004;2023-04-30T06:49:08;6.50;99.90
45066;DHT22;30830;53.704;10.004;2023-04-30T06:51:34;6.60;99.90
45066;DHT22;30830;53.704;10.004;2023-04-30T06:54:00;6.80;99.90
45066;DHT22;30830;53.704;10.004;2023-04-30T06:56:25;7.00;99.90
45066;DHT22;30830;53.704;10.004;2023-04-30T06:58:51;7.10;99.90
45066;DHT22;30830;53.704;10.004;2023-04-30T07:01:16;7.20;99.90
45066;DHT22;30830;53.704;10.004;2023-04-30T07:03:42;7.40;99.90
45066;DHT22;30830;53.704;10.004;2023-04-30T07:06:08;7.60;99.90
45066;DHT22;30830;53.704;10.004;2023-04-30T07:08:33;7.90;99.90
45066;DHT22;30830;53.704;10.004;2023-04-30T07:10:59;7.90;99.90
45066;DHT22;30830;53.704;10.004;2023-04-30T07:13:24;8.10;99.90
45066;DHT22;30830;53.704;10.004;2023-04-30T07:15:50;8.30;99.90
45066;DHT22;30830;53.704;10.004;2023-04-30T07:18:16;8.40;99.90
45066;DHT22;30830;53.704;10.004;2023-04-30T07:20:41;8.40;99.90
45066;DHT22;30830;53.704;10.004;2023-04-30T07:23:07;8.70;99.90
45066;DHT22;30830;53.704;10.004;2023-04-30T07:25:33;8.80;99.90
45066;DHT22;30830;53.704;10.004;2023-04-30T07:27:59;8.90;99.90
45066;DHT22;30830;53.704;10.004;2023-04-30T07:30:25;8.90;99.90
45066;DHT22;30830;53.704;10.004;2023-04-30T07:32:50;9.10;99.90
45066;DHT22;30830;53.704;10.004;2023-04-30T07:35:16;9.30;99.90
45066;DHT22;30830;53.704;10.004;2023-04-30T07:37:42;9.30;99.90
45066;DHT22;30830;53.704;10.004;2023-04-30T07:40:08;9.20;99.90
45066;DHT22;30830;53.704;10.004;2023-04-30T07:42:40;9.20;99.90
45066;DHT22;30830;53.704;10.004;2023-04-30T07:45:12;9.40;99.90
45066;DHT22;30830;53.704;10.004;2023-04-30T07:47:38;9.70;99.90
45066;DHT22;30830;53.704;10.004;2023-04-30T07:50:04;10.00;99.90
45066;DHT22;30830;53.704;10.004;2023-04-30T07:52:30;10.20;99.90
45066;DHT22;30830;53.704;10.004;2023-04-30T07:54:55;10.30;99.90
45066;DHT22;30830;53.704;10.004;2023-04-30T07:57:21;10.60;99.90
45066;DHT22;30830;53.704;10.004;2023-04-30T07:59:46;10.60;99.90
45066;DHT22;30830;53.704;10.004;2023-04-30T08:02:12;10.40;97.20
45066;DHT22;30830;53.704;10.004;2023-04-30T08:04:37;10.30;98.40
45066;DHT22;30830;53.704;10.004;2023-04-30T08:07:03;10.40;98.90
45066;DHT22;30830;53.704;10.004;2023-04-30T08:09:29;10.60;98.50
45066;DHT22;30830;53.704;10.004;2023-04-30T08:11:55;10.60;98.40
45066;DHT22;30830;53.704;10.004;2023-04-30T08:14:20;10.30;96.80
45066;DHT22;30830;53.704;10.004;2023-04-30T08:16:46;10.30;97.90
45066;DHT22;30830;53.704;10.004;2023-04-30T08:19:12;10.10;96.90
45066;DHT22;30830;53.704;10.004;2023-04-30T08:21:38;10.00;98.40
45066;DHT22;30830;53.704;10.004;2023-04-30T08:24:04;10.30;99.40
45066;DHT22;30830;53.704;10.004;2023-04-30T08:26:29;10.80;99.10
45066;DHT22;30830;53.704;10.004;2023-04-30T08:28:55;11.00;97.50
45066;DHT22;30830;53.704;10.004;2023-04-30T08:31:21;11.00;97.60
45066;DHT22;30830;53.704;10.004;2023-04-30T08:33:46;11.50;97.60
45066;DHT22;30830;53.704;10.004;2023-04-30T08:36:12;11.40;96.60
45066;DHT22;30830;53.704;10.004;2023-04-30T08:38:37;11.40;97.70
45066;DHT22;30830;53.704;10.004;2023-04-30T08:41:13;11.40;94.50
45066;DHT22;30830;53.704;10.004;2023-04-30T08:43:40;11.30;94.70
45066;DHT22;30830;53.704;10.004;2023-04-30T08:46:06;11.40;95.50
45066;DHT22;30830;53.704;10.004;2023-04-30T08:48:32;11.70;96.60
45066;DHT22;30830;53.704;10.004;2023-04-30T08:51:02;11.90;93.40
45066;DHT22;30830;53.704;10.004;2023-04-30T08:53:29;11.60;95.10
45066;DHT22;30830;53.704;10.004;2023-04-30T08:55:56;11.50;94.10
45066;DHT22;30830;53.704;10.004;2023-04-30T08:58:22;11.50;94.50
45066;DHT22;30830;53.704;10.004;2023-04-30T09:00:47;11.30;93.90
45066;DHT22;30830;53.704;10.004;2023-04-30T09:03:13;11.30;95.30
45066;DHT22;30830;53.704;10.004;2023-04-30T09:05:38;11.40;93.10
45066;DHT22;30830;53.704;10.004;2023-04-30T09:08:06;11.50;95.70
45066;DHT22;30830;53.704;10.004;2023-04-30T09:10:33;11.90;95.30
45066;DHT22;30830;53.704;10.004;2023-04-30T09:13:01;11.90;93.20
45066;DHT22;30830;53.704;10.004;2023-04-30T09:15:27;11.90;93.70
45066;DHT22;30830;53.704;10.004;2023-04-30T09:18:18;12.00;94.60
45066;DHT22;30830;53.704;10.004;2023-04-30T09:20:58;12.30;95.20
45066;DHT22;30830;53.704;10.004;2023-04-30T09:23:25;12.00;90.30
45066;DHT22;30830;53.704;10.004;2023-04-30T09:25:50;12.30;96.20
45066;DHT22;30830;53.704;10.004;2023-04-30T09:28:17;12.60;91.70
45066;DHT22;30830;53.704;10.004;2023-04-30T09:30:42;12.60;91.30
45066;DHT22;30830;53.704;10.004;2023-04-30T09:33:08;12.50;91.40
45066;DHT22;30830;53.704;10.004;2023-04-30T09:35:39;12.60;93.60
45066;DHT22;30830;53.704;10.004;2023-04-30T09:38:05;12.90;92.10
45066;DHT22;30830;53.704;10.004;2023-04-30T09:40:35;13.10;92.10
45066;DHT22;30830;53.704;10.004;2023-04-30T09:43:01;13.10;86.80
45066;DHT22;30830;53.704;10.004;2023-04-30T09:45:40;13.10;90.00
45066;DHT22;30830;53.704;10.004;2023-04-30T09:48:08;13.00;95.30
45066;DHT22;30830;53.704;10.004;2023-04-30T09:50:38;13.00;91.50
45066;DHT22;30830;53.704;10.004;2023-04-30T09:53:06;13.30;93.50
45066;DHT22;30830;53.704;10.004;2023-04-30T09:55:34;13.40;94.40
45066;DHT22;30830;53.704;10.004;2023-04-30T09:58:05;13.40;90.40
45066;DHT22;30830;53.704;10.004;2023-04-30T10:00:33;13.40;91.40
45066;DHT22;30830;53.704;10.004;2023-04-30T10:03:04;13.30;91.10
45066;DHT22;30830;53.704;10.004;2023-04-30T10:05:50;13.50;90.00
45066;DHT22;30830;53.704;10.004;2023-04-30T10:08:27;13.50;92.00
45066;DHT22;30830;53.704;10.004;2023-04-30T10:11:05;13.10;87.30
45066;DHT22;30830;53.704;10.004;2023-04-30T10:13:41;12.40;88.40
45066;DHT22;30830;53.704;10.004;2023-04-30T10:16:18;12.20;92.20
45066;DHT22;30830;53.704;10.004;2023-04-30T10:18:49;12.20;91.30
45066;DHT22;30830;53.704;10.004;2023-04-30T10:21:16;12.20;91.90
45066;DHT22;30830;53.704;10.004;2023-04-30T10:23:43;12.30;91.50
45066;DHT22;30830;53.704;10.004;2023-04-30T10:26:09;12.20;90.40
45066;DHT22;30830;53.704;10.004;2023-04-30T10:28:37;12.10;92.00
45066;DHT22;30830;53.704;10.004;2023-04-30T10:31:04;12.10;90.60
45066;DHT22;30830;53.704;10.004;2023-04-30T10:33:36;12.30;92.90
45066;DHT22;30830;53.704;10.004;2023-04-30T10:36:11;12.70;92.10
45066;DHT22;30830;53.704;10.004;2023-04-30T10:38:37;12.70;90.80
45066;DHT22;30830;53.704;10.004;2023-04-30T10:41:06;12.60;90.00
45066;DHT22;30830;53.704;10.004;2023-04-30T10:43:32;12.20;89.20
45066;DHT22;30830;53.704;10.004;2023-04-30T10:46:01;11.90;90.00
45066;DHT22;30830;53.704;10.004;2023-04-30T10:48:27;12.00;91.20
45066;DHT22;30830;53.704;10.004;2023-04-30T10:50:58;12.00;90.00
45066;DHT22;30830;53.704;10.004;2023-04-30T10:53:24;12.10;90.00
45066;DHT22;30830;53.704;10.004;2023-04-30T10:55:56;12.30;92.00
45066;DHT22;30830;53.704;10.004;2023-04-30T10:58:27;12.40;87.50
45066;DHT22;30830;53.704;10.004;2023-04-30T11:01:08;12.00;91.10
45066;DHT22;30830;53.704;10.004;2023-04-30T11:03:35;12.10;90.00
45066;DHT22;30830;53.704;10.004;2023-04-30T11:06:10;12.30;91.40
45066;DHT22;30830;53.704;10.004;2023-04-30T11:08:38;12.40;90.40
45066;DHT22;30830;53.704;10.004;2023-04-30T11:11:04;12.60;90.60
45066;DHT22;30830;53.704;10.004;2023-04-30T11:13:46;12.90;90.20
45066;DHT22;30830;53.704;10.004;2023-04-30T11:16:12;12.90;88.70
45066;DHT22;30830;53.704;10.004;2023-04-30T11:18:44;12.80;89.70
45066;DHT22;30830;53.704;10.004;2023-04-30T11:21:10;13.00;92.30
45066;DHT22;30830;53.704;10.004;2023-04-30T11:23:40;13.20;87.10
45066;DHT22;30830;53.704;10.004;2023-04-30T11:26:06;13.00;86.80
45066;DHT22;30830;53.704;10.004;2023-04-30T11:28:32;12.90;88.20
45066;DHT22;30830;53.704;10.004;2023-04-30T11:31:02;12.80;86.90
45066;DHT22;30830;53.704;10.004;2023-04-30T11:33:29;12.70;85.90
45066;DHT22;30830;53.704;10.004;2023-04-30T11:35:56;12.60;88.40
45066;DHT22;30830;53.704;10.004;2023-04-30T11:38:27;12.60;86.90
45066;DHT22;30830;53.704;10.004;2023-04-30T11:40:53;12.30;85.10
45066;DHT22;30830;53.704;10.004;2023-04-30T11:43:30;12.50;88.20
45066;DHT22;30830;53.704;10.004;2023-04-30T11:46:14;12.70;88.90
45066;DHT22;30830;53.704;10.004;2023-04-30T11:48:41;13.00;90.00
45066;DHT22;30830;53.704;10.004;2023-04-30T11:51:14;12.90;85.60
45066;DHT22;30830;53.704;10.004;2023-04-30T11:53:40;13.00;87.70
45066;DHT22;30830;53.704;10.004;2023-04-30T11:56:06;12.90;84.40
45066;DHT22;30830;53.704;10.004;2023-04-30T11:58:35;12.80;88.80
45066;DHT22;30830;53.704;10.004;2023-04-30T12:01:06;12.90;91.10
45066;DHT22;30830;53.704;10.004;2023-04-30T12:03:40;13.10;88.70
45066;DHT22;30830;53.704;10.004;2023-04-30T12:06:08;13.20;85.10
45066;DHT22;30830;53.704;10.004;2023-04-30T12:08:34;13.20;86.20
45066;DHT22;30830;53.704;10.004;2023-04-30T12:10:59;13.50;87.50
45066;DHT22;30830;53.704;10.004;2023-04-30T12:13:25;13.60;89.30
45066;DHT22;30830;53.704;10.004;2023-04-30T12:15:58;13.60;87.50
45066;DHT22;30830;53.704;10.004;2023-04-30T12:18:24;13.50;86.90
45066;DHT22;30830;53.704;10.004;2023-04-30T12:20:51;13.60;88.10
45066;DHT22;30830;53.704;10.004;2023-04-30T12:23:16;13.60;86.60
45066;DHT22;30830;53.704;10.004;2023-04-30T12:25:42;13.90;88.50
45066;DHT22;30830;53.704;10.004;2023-04-30T12:28:09;14.00;86.10
45066;DHT22;30830;53.704;10.004;2023-04-30T12:30:35;14.00;84.70
45066;DHT22;30830;53.704;10.004;2023-04-30T12:33:01;14.00;82.60
45066;DHT22;30830;53.704;10.004;2023-04-30T12:35:29;13.90;85.70
45066;DHT22;30830;53.704;10.004;2023-04-30T12:38:06;13.80;81.80
45066;DHT22;30830;53.704;10.004;2023-04-30T12:40:32;13.70;79.60
45066;DHT22;30830;53.704;10.004;2023-04-30T12:43:03;13.50;82.10
45066;DHT22;30830;53.704;10.004;2023-04-30T12:45:51;13.80;84.80
45066;DHT22;30830;53.704;10.004;2023-04-30T12:48:22;14.10;81.40
45066;DHT22;30830;53.704;10.004;2023-04-30T12:50:58;14.40;84.20
45066;DHT22;30830;53.704;10.004;2023-04-30T12:53:24;14.60;77.70
45066;DHT22;30830;53.704;10.004;2023-04-30T12:56:15;14.60;78.00
45066;DHT22;30830;53.704;10.004;2023-04-30T12:58:46;14.50;81.30
45066;DHT22;30830;53.704;10.004;2023-04-30T13:01:21;14.50;80.20
45066;DHT22;30830;53.704;10.004;2023-04-30T13:03:48;14.50;79.50
45066;DHT22;30830;53.704;10.004;2023-04-30T13:06:14;14.50;81.40
45066;DHT22;30830;53.704;10.004;2023-04-30T13:08:40;14.60;81.40
45066;DHT22;30830;53.704;10.004;2023-04-30T13:11:06;14.60;81.30
45066;DHT22;30830;53.704;10.004;2023-04-30T13:13:31;14.80;83.10
45066;DHT22;30830;53.704;10.004;2023-04-30T13:15:58;15.00;80.80
45066;DHT22;30830;53.704;10.004;2023-04-30T13:18:23;15.10;86.20
45066;DHT22;30830;53.704;10.004;2023-04-30T13:20:50;15.20;83.00
45066;DHT22;30830;53.704;10.004;2023-04-30T13:23:16;15.40;85.10
45066;DHT22;30830;53.704;10.004;2023-04-30T13:25:41;15.60;84.10
45066;DHT22;30830;53.704;10.004;2023-04-30T13:28:07;15.60;83.40
45066;DHT22;30830;53.704;10.004;2023-04-30T13:30:33;15.70;81.20
45066;DHT22;30830;53.704;10.004;2023-04-30T13:32:59;15.80;83.10
45066;DHT22;30830;53.704;10.004;2023-04-30T13:35:25;16.10;81.80
45066;DHT22;30830;53.704;10.004;2023-04-30T13:37:51;16.10;83.30
45066;DHT22;30830;53.704;10.004;2023-04-30T13:40:19;16.20;82.80
45066;DHT22;30830;53.704;10.004;2023-04-30T13:42:46;16.10;78.10
45066;DHT22;30830;53.704;10.004;2023-04-30T13:45:12;16.10;84.00
45066;DHT22;30830;53.704;10.004;2023-04-30T13:47:38;16.20;81.40
45066;DHT22;30830;53.704;10.004;2023-04-30T13:50:04;16.30;82.30
45066;DHT22;30830;53.704;10.004;2023-04-30T13:52:31;16.50;84.20
45066;DHT22;30830;53.704;10.004;2023-04-30T13:54:56;16.60;81.00
45066;DHT22;30830;53.704;10.004;2023-04-30T13:57:23;16.50;79.80
45066;DHT22;30830;53.704;10.004;2023-04-30T13:59:49;16.60;78.10
45066;DHT22;30830;53.704;10.004;2023-04-30T14:02:15;16.50;81.50
45066;DHT22;30830;53.704;10.004;2023-04-30T14:04:40;16.60;81.80
45066;DHT22;30830;53.704;10.004;2023-04-30T14:07:06;16.70;78.20
45066;DHT22;30830;53.704;10.004;2023-04-30T14:09:31;16.60;83.60
45066;DHT22;30830;53.704;10.004;2023-04-30T14:11:57;16.70;78.40
45066;DHT22;30830;53.704;10.004;2023-04-30T14:14:24;16.60;78.60
45066;DHT22;30830;53.704;10.004;2023-04-30T14:16:50;16.70;78.90
45066;DHT22;30830;53.704;10.004;2023-04-30T14:19:15;16.70;80.80
45066;DHT22;30830;53.704;10.004;2023-04-30T14:21:41;16.50;74.50
45066;DHT22;30830;53.704;10.004;2023-04-30T14:24:07;16.50;76.20
45066;DHT22;30830;53.704;10.004;2023-04-30T14:26:33;16.30;73.10
45066;DHT22;30830;53.704;10.004;2023-04-30T14:28:59;16.10;74.40
45066;DHT22;30830;53.704;10.004;2023-04-30T14:31:24;16.10;76.60
45066;DHT22;30830;53.704;10.004;2023-04-30T14:33:51;16.00;76.10
45066;DHT22;30830;53.704;10.004;2023-04-30T14:36:16;16.10;78.90
45066;DHT22;30830;53.704;10.004;2023-04-30T14:38:42;16.20;79.30
45066;DHT22;30830;53.704;10.004;2023-04-30T14:41:08;16.30;77.10
45066;DHT22;30830;53.704;10.004;2023-04-30T14:43:33;16.30;76.40
45066;DHT22;30830;53.704;10.004;2023-04-30T14:45:59;16.30;74.50
45066;DHT22;30830;53.704;10.004;2023-04-30T14:48:24;16.10;74.60
45066;DHT22;30830;53.704;10.004;2023-04-30T14:50:50;16.20;78.40
45066;DHT22;30830;53.704;10.004;2023-04-30T14:53:16;16.20;77.60
45066;DHT22;30830;53.704;10.004;2023-04-30T14:55:42;16.10;76.60
45066;DHT22;30830;53.704;10.004;2023-04-30T14:58:07;16.00;75.80
45066;DHT22;30830;53.704;10.004;2023-04-30T15:00:33;16.00;79.60
45066;DHT22;30830;53.704;10.004;2023-04-30T15:02:58;16.10;78.10
45066;DHT22;30830;53.704;10.004;2023-04-30T15:05:24;16.10;78.20
45066;DHT22;30830;53.704;10.004;2023-04-30T15:07:50;16.00;76.00
45066;DHT22;30830;53.704;10.004;2023-04-30T15:10:16;15.90;80.00
45066;DHT22;30830;53.704;10.004;2023-04-30T15:12:42;15.80;77.80
45066;DHT22;30830;53.704;10.004;2023-04-30T15:15:08;15.70;75.10
45066;DHT22;30830;53.704;10.004;2023-04-30T15:17:34;15.70;76.70
45066;DHT22;30830;53.704;10.004;2023-04-30T15:20:02;15.60;75.30
45066;DHT22;30830;53.704;10.004;2023-04-30T15:22:28;15.20;74.80
45066;DHT22;30830;53.704;10.004;2023-04-30T15:24:54;15.10;76.90
45066;DHT22;30830;53.704;10.004;2023-04-30T15:27:20;15.10;79.20
45066;DHT22;30830;53.704;10.004;2023-04-30T15:29:47;15.20;78.60
45066;DHT22;30830;53.704;10.004;2023-04-30T15:32:13;15.30;80.20
45066;DHT22;30830;53.704;10.004;2023-04-30T15:34:38;15.30;78.40
45066;DHT22;30830;53.704;10.004;2023-04-30T15:37:04;15.10;78.20
45066;DHT22;30830;53.704;10.004;2023-04-30T15:39:30;15.00;77.40